createdAt,value
2023-03-13T00:00:54.418Z,10.36
2023-03-13T00:01:54.439Z,10.34
2023-03-13T00:02:54.382Z,10.52
2023-03-13T00:03:54.341Z,10.42
2023-03-13T00:04:54.339Z,10.51
2023-03-13T00:05:54.284Z,10.41
2023-03-13T00:06:54.272Z,10.38
2023-03-13T00:07:54.249Z,10.41
2023-03-13T00:08:54.209Z,10.42
2023-03-13T00:09:54.181Z,10.40
2023-03-13T00:10:54.159Z,10.44
2023-03-13T00:11:54.127Z,10.44
2023-03-13T00:12:54.129Z,10.40
2023-03-13T00:13:54.076Z,10.41
2023-03-13T00:14:54.054Z,10.44
2023-03-13T00:15:54.024Z,10.44
2023-03-13T00:16:54.071Z,10.48
2023-03-13T00:17:53.978Z,10.44
2023-03-13T00:18:53.956Z,10.41
2023-03-13T00:19:53.925Z,10.45
2023-03-13T00:20:53.897Z,10.44
2023-03-13T00:21:53.877Z,10.38
2023-03-13T00:22:53.851Z,10.36
2023-03-13T00:23:53.821Z,10.38
2023-03-13T00:24:53.802Z,10.45
2023-03-13T00:25:53.772Z,10.38
2023-03-13T00:26:53.752Z,10.41
2023-03-13T00:27:53.721Z,10.36
2023-03-13T00:28:53.720Z,10.41
2023-03-13T00:29:53.674Z,10.48
2023-03-13T00:30:53.730Z,10.45
2023-03-13T00:31:53.680Z,10.44
2023-03-13T00:32:53.678Z,10.44
2023-03-13T00:33:53.613Z,10.41
2023-03-13T00:34:53.548Z,10.40
2023-03-13T00:35:53.558Z,10.53
2023-03-13T00:36:53.502Z,10.36
2023-03-13T00:37:53.467Z,10.40
2023-03-13T00:38:53.448Z,10.36
2023-03-13T00:39:53.420Z,10.38
2023-03-13T00:40:53.392Z,10.32
2023-03-13T00:41:53.366Z,10.47
2023-03-13T00:42:53.343Z,10.53
2023-03-13T00:43:53.314Z,10.51
2023-03-13T00:44:53.310Z,10.47
2023-03-13T00:45:53.333Z,10.41
2023-03-13T00:46:53.239Z,10.52
2023-03-13T00:47:53.212Z,10.44
2023-03-13T00:48:53.204Z,10.41
2023-03-13T00:49:53.162Z,10.44
2023-03-13T00:50:53.139Z,10.44
2023-03-13T00:51:53.110Z,10.36
2023-03-13T00:52:53.084Z,10.48
2023-03-13T00:53:53.059Z,10.32
2023-03-13T00:54:53.061Z,10.40
2023-03-13T00:55:53.019Z,10.44
2023-03-13T00:56:52.985Z,10.40
2023-03-13T00:57:52.964Z,10.34
2023-03-13T00:58:52.936Z,10.33
2023-03-13T00:59:52.915Z,10.26
2023-03-13T01:00:52.930Z,10.23
2023-03-13T01:01:52.859Z,10.26
2023-03-13T01:02:53.034Z,10.23
2023-03-13T01:03:52.814Z,10.20
2023-03-13T01:04:52.782Z,10.27
2023-03-13T01:05:52.755Z,10.11
2023-03-13T01:06:52.743Z,10.17
2023-03-13T01:07:52.712Z,10.17
2023-03-13T01:08:52.690Z,10.09
2023-03-13T01:09:52.660Z,10.09
2023-03-13T01:10:52.636Z,10.07
2023-03-13T01:11:52.616Z,10.01
2023-03-13T01:12:52.585Z,10.07
2023-03-13T01:13:52.563Z,10.11
2023-03-13T01:14:52.539Z,10.04
2023-03-13T01:15:52.567Z,10.08
2023-03-13T01:16:52.600Z,9.99
2023-03-13T01:17:52.455Z,10.01
2023-03-13T01:18:52.462Z,9.90
2023-03-13T01:19:52.417Z,9.97
2023-03-13T01:20:52.383Z,10.01
2023-03-13T01:21:52.357Z,9.90
2023-03-13T01:22:52.345Z,9.87
2023-03-13T01:23:52.321Z,9.93
2023-03-13T01:24:52.278Z,9.83
2023-03-13T01:25:52.253Z,9.86
2023-03-13T01:26:52.229Z,9.87
2023-03-13T01:27:52.221Z,9.86
2023-03-13T01:28:52.178Z,9.79
2023-03-13T01:29:52.156Z,9.83
2023-03-13T01:30:52.252Z,9.89
2023-03-13T01:31:52.103Z,9.90
2023-03-13T01:32:52.188Z,9.87
2023-03-13T01:33:52.119Z,9.84
2023-03-13T01:34:52.027Z,9.83
2023-03-13T01:35:52.092Z,9.75
2023-03-13T01:36:51.980Z,9.75
2023-03-13T01:37:51.954Z,9.76
2023-03-13T01:38:51.922Z,9.86
2023-03-13T01:39:51.901Z,9.75
2023-03-13T01:40:51.876Z,9.83
2023-03-13T01:41:51.857Z,9.74
2023-03-13T01:42:51.838Z,9.81
2023-03-13T01:43:51.811Z,9.75
2023-03-13T01:44:51.791Z,9.79
2023-03-13T01:45:51.751Z,9.74
2023-03-13T01:46:51.827Z,9.83
2023-03-13T01:47:51.698Z,9.83
2023-03-13T01:48:51.692Z,9.79
2023-03-13T01:49:51.644Z,9.75
2023-03-13T01:50:51.618Z,9.78
2023-03-13T01:51:51.597Z,9.75
2023-03-13T01:52:51.568Z,9.75
2023-03-13T01:53:51.542Z,9.74
2023-03-13T01:54:51.533Z,9.69
2023-03-13T01:55:51.489Z,9.72
2023-03-13T01:56:51.464Z,9.71
2023-03-13T01:57:51.442Z,9.71
2023-03-13T01:58:51.416Z,9.69
2023-03-13T01:59:51.398Z,9.66
2023-03-13T02:00:51.369Z,9.68
2023-03-13T02:01:51.379Z,9.68
2023-03-13T02:02:51.453Z,9.66
2023-03-13T02:03:51.289Z,9.66
2023-03-13T02:04:51.286Z,9.75
2023-03-13T02:05:51.249Z,9.75
2023-03-13T02:06:51.223Z,9.71
2023-03-13T02:07:51.195Z,9.60
2023-03-13T02:08:51.165Z,9.75
2023-03-13T02:09:51.231Z,9.72
2023-03-13T02:10:51.107Z,9.68
2023-03-13T02:11:51.086Z,9.64
2023-03-13T02:12:51.054Z,9.72
2023-03-13T02:13:51.032Z,9.71
2023-03-13T02:14:51.002Z,9.66
2023-03-13T02:15:51.021Z,9.64
2023-03-13T02:16:50.956Z,9.74
2023-03-13T02:17:50.933Z,9.69
2023-03-13T02:18:50.900Z,9.66
2023-03-13T02:19:50.881Z,9.66
2023-03-13T02:20:50.874Z,9.66
2023-03-13T02:21:50.831Z,9.72
2023-03-13T02:22:50.805Z,9.75
2023-03-13T02:23:50.777Z,9.75
2023-03-13T02:24:50.754Z,9.75
2023-03-13T02:25:50.722Z,9.75
2023-03-13T02:26:50.702Z,9.71
2023-03-13T02:27:50.675Z,9.61
2023-03-13T02:28:50.648Z,9.61
2023-03-13T02:29:50.622Z,9.65
2023-03-13T02:30:50.591Z,9.61
2023-03-13T02:31:50.587Z,9.64
2023-03-13T02:32:50.586Z,9.57
2023-03-13T02:33:50.515Z,9.60
2023-03-13T02:34:50.488Z,9.61
2023-03-13T02:35:50.525Z,9.61
2023-03-13T02:36:50.554Z,9.69
2023-03-13T02:37:50.410Z,9.65
2023-03-13T02:38:50.387Z,9.75
2023-03-13T02:39:50.364Z,9.65
2023-03-13T02:40:50.335Z,9.68
2023-03-13T02:41:50.321Z,9.66
2023-03-13T02:42:50.288Z,9.69
2023-03-13T02:43:50.264Z,9.65
2023-03-13T02:44:50.236Z,9.64
2023-03-13T02:45:50.208Z,9.68
2023-03-13T02:46:50.349Z,9.60
2023-03-13T02:47:50.164Z,9.65
2023-03-13T02:48:50.134Z,9.66
2023-03-13T02:49:50.114Z,9.66
2023-03-13T02:50:50.080Z,9.66
2023-03-13T02:51:50.063Z,9.64
2023-03-13T02:52:50.069Z,9.65
2023-03-13T02:53:50.006Z,9.68
2023-03-13T02:54:49.982Z,9.64
2023-03-13T02:55:49.960Z,9.68
2023-03-13T02:56:49.933Z,9.69
2023-03-13T02:57:49.907Z,9.64
2023-03-13T02:58:50.714Z,9.71
2023-03-13T02:59:49.858Z,9.72
2023-03-13T03:00:49.870Z,9.75
2023-03-13T03:01:49.805Z,9.64
2023-03-13T03:02:49.775Z,9.68
2023-03-13T03:03:49.870Z,9.68
2023-03-13T03:04:49.723Z,9.72
2023-03-13T03:05:49.703Z,9.74
2023-03-13T03:06:49.674Z,9.75
2023-03-13T03:07:49.650Z,9.75
2023-03-13T03:08:49.649Z,9.68
2023-03-13T03:09:49.597Z,9.75
2023-03-13T03:10:49.577Z,9.68
2023-03-13T03:11:49.561Z,9.71
2023-03-13T03:12:49.530Z,9.71
2023-03-13T03:13:49.504Z,9.76
2023-03-13T03:14:49.471Z,9.69
2023-03-13T03:15:49.445Z,9.78
2023-03-13T03:16:49.464Z,9.76
2023-03-13T03:17:49.399Z,9.76
2023-03-13T03:18:49.373Z,9.69
2023-03-13T03:19:49.347Z,9.68
2023-03-13T03:20:49.319Z,9.76
2023-03-13T03:21:49.289Z,9.79
2023-03-13T03:22:49.270Z,9.76
2023-03-13T03:23:49.238Z,9.76
2023-03-13T03:24:49.231Z,9.74
2023-03-13T03:25:49.184Z,9.78
2023-03-13T03:26:49.156Z,9.79
2023-03-13T03:27:49.137Z,9.74
2023-03-13T03:28:49.101Z,9.72
2023-03-13T03:29:49.075Z,9.74
2023-03-13T03:30:49.056Z,9.81
2023-03-13T03:31:49.215Z,9.75
2023-03-13T03:32:49.150Z,9.76
2023-03-13T03:33:48.984Z,9.74
2023-03-13T03:34:48.952Z,9.83
2023-03-13T03:35:48.969Z,9.78
2023-03-13T03:36:48.898Z,9.84
2023-03-13T03:37:48.871Z,9.83
2023-03-13T03:38:48.841Z,9.78
2023-03-13T03:39:48.827Z,9.84
2023-03-13T03:40:48.826Z,9.83
2023-03-13T03:41:48.799Z,9.81
2023-03-13T03:42:48.762Z,9.79
2023-03-13T03:43:48.712Z,9.84
2023-03-13T03:44:48.693Z,9.87
2023-03-13T03:45:48.722Z,9.76
2023-03-13T03:46:48.744Z,9.81
2023-03-13T03:47:48.616Z,9.86
2023-03-13T03:48:48.586Z,9.79
2023-03-13T03:49:48.567Z,9.86
2023-03-13T03:50:48.531Z,9.81
2023-03-13T03:51:48.524Z,9.79
2023-03-13T03:52:48.480Z,9.84
2023-03-13T03:53:48.473Z,9.89
2023-03-13T03:54:48.434Z,9.86
2023-03-13T03:55:48.409Z,9.71
2023-03-13T03:56:48.406Z,9.83
2023-03-13T03:57:48.363Z,9.76
2023-03-13T03:58:48.340Z,9.93
2023-03-13T03:59:48.310Z,9.87
2023-03-13T04:00:48.283Z,9.96
2023-03-13T04:01:48.287Z,9.96
2023-03-13T04:02:48.231Z,9.96
2023-03-13T04:03:48.366Z,9.91
2023-03-13T04:04:48.178Z,9.93
2023-03-13T04:05:48.162Z,9.93
2023-03-13T04:06:48.125Z,9.93
2023-03-13T04:07:48.106Z,9.87
2023-03-13T04:08:48.081Z,9.96
2023-03-13T04:09:48.056Z,9.87
2023-03-13T04:10:48.033Z,9.94
2023-03-13T04:11:48.015Z,9.94
2023-03-13T04:12:48.006Z,9.99
2023-03-13T04:13:47.975Z,10.08
2023-03-13T04:14:47.926Z,10.08
2023-03-13T04:15:47.905Z,10.01
2023-03-13T04:16:47.961Z,10.09
2023-03-13T04:17:47.870Z,10.07
2023-03-13T04:18:47.826Z,10.04
2023-03-13T04:19:47.803Z,10.11
2023-03-13T04:20:47.770Z,10.09
2023-03-13T04:21:47.750Z,10.12
2023-03-13T04:22:47.716Z,10.08
2023-03-13T04:23:47.701Z,10.15
2023-03-13T04:24:47.685Z,10.22
2023-03-13T04:25:47.647Z,10.20
2023-03-13T04:26:47.627Z,10.20
2023-03-13T04:27:47.594Z,10.14
2023-03-13T04:28:47.600Z,10.17
2023-03-13T04:29:47.547Z,10.17
2023-03-13T04:30:47.560Z,10.14
2023-03-13T04:31:47.492Z,10.14
2023-03-13T04:32:47.513Z,10.22
2023-03-13T04:33:47.442Z,10.25
2023-03-13T04:34:47.426Z,10.25
2023-03-13T04:35:47.585Z,10.27
2023-03-13T04:36:47.364Z,10.29
2023-03-13T04:37:47.342Z,10.41
2023-03-13T04:38:47.314Z,10.33
2023-03-13T04:39:47.318Z,10.42
2023-03-13T04:40:47.266Z,10.40
2023-03-13T04:41:47.244Z,10.48
2023-03-13T04:42:47.214Z,10.38
2023-03-13T04:43:47.189Z,10.30
2023-03-13T04:44:47.186Z,10.41
2023-03-13T04:45:47.151Z,10.40
2023-03-13T04:46:47.115Z,10.34
2023-03-13T04:47:47.092Z,10.38
2023-03-13T04:48:47.069Z,10.38
2023-03-13T04:49:47.047Z,10.38
2023-03-13T04:50:47.002Z,10.45
2023-03-13T04:51:46.985Z,10.42
2023-03-13T04:52:49.485Z,10.48
2023-03-13T04:53:46.933Z,10.55
2023-03-13T04:54:46.907Z,10.52
2023-03-13T04:55:46.885Z,10.53
2023-03-13T04:56:46.853Z,10.53
2023-03-13T04:57:46.845Z,10.52
2023-03-13T04:58:47.098Z,10.52
2023-03-13T04:59:46.787Z,10.48
2023-03-13T05:00:46.772Z,10.59
2023-03-13T05:01:46.811Z,10.59
2023-03-13T05:02:46.706Z,10.47
2023-03-13T05:03:46.677Z,10.55
2023-03-13T05:04:46.707Z,10.48
2023-03-13T05:05:46.621Z,10.53
2023-03-13T05:06:46.601Z,10.53
2023-03-13T05:07:46.576Z,10.60
2023-03-13T05:08:46.566Z,10.63
2023-03-13T05:09:46.524Z,10.59
2023-03-13T05:10:46.505Z,10.53
2023-03-13T05:11:46.474Z,10.66
2023-03-13T05:12:46.453Z,10.64
2023-03-13T05:13:46.427Z,10.64
2023-03-13T05:14:46.406Z,10.67
2023-03-13T05:15:46.508Z,10.70
2023-03-13T05:16:46.375Z,10.73
2023-03-13T05:17:46.323Z,10.63
2023-03-13T05:18:46.296Z,10.71
2023-03-13T05:19:46.271Z,10.66
2023-03-13T05:20:46.274Z,10.76
2023-03-13T05:21:46.217Z,10.79
2023-03-13T05:22:46.200Z,10.73
2023-03-13T05:23:46.179Z,10.79
2023-03-13T05:24:46.149Z,10.78
2023-03-13T05:25:46.121Z,10.74
2023-03-13T05:26:46.099Z,10.78
2023-03-13T05:27:46.071Z,10.71
2023-03-13T05:28:46.047Z,10.82
2023-03-13T05:29:46.023Z,10.73
2023-03-13T05:30:46.034Z,10.81
2023-03-13T05:31:45.969Z,10.79
2023-03-13T05:32:46.090Z,10.81
2023-03-13T05:33:45.921Z,10.79
2023-03-13T05:34:45.894Z,10.76
2023-03-13T05:35:45.922Z,10.84
2023-03-13T05:36:45.866Z,10.88
2023-03-13T05:37:45.816Z,10.78
2023-03-13T05:38:45.803Z,10.84
2023-03-13T05:39:45.766Z,10.88
2023-03-13T05:40:45.747Z,10.81
2023-03-13T05:41:45.713Z,10.94
2023-03-13T05:42:45.691Z,10.94
2023-03-13T05:43:45.659Z,10.92
2023-03-13T05:44:45.643Z,10.99
2023-03-13T05:45:45.612Z,11.04
2023-03-13T05:46:45.722Z,11.00
2023-03-13T05:47:45.563Z,11.04
2023-03-13T05:48:45.568Z,10.97
2023-03-13T05:49:45.512Z,10.99
2023-03-13T05:50:45.488Z,11.07
2023-03-13T05:51:45.458Z,10.97
2023-03-13T05:52:45.440Z,11.03
2023-03-13T05:53:45.415Z,10.91
2023-03-13T05:54:45.390Z,11.02
2023-03-13T05:55:45.359Z,11.04
2023-03-13T05:56:45.338Z,11.11
2023-03-13T05:57:45.306Z,11.09
2023-03-13T05:58:45.285Z,11.14
2023-03-13T05:59:45.252Z,11.11
2023-03-13T06:00:45.229Z,11.06
2023-03-13T06:01:45.210Z,11.06
2023-03-13T06:02:45.180Z,11.07
2023-03-13T06:03:45.378Z,11.25
2023-03-13T06:04:45.321Z,11.15
2023-03-13T06:05:45.104Z,11.19
2023-03-13T06:06:45.080Z,11.25
2023-03-13T06:07:45.051Z,11.21
2023-03-13T06:08:45.029Z,11.17
2023-03-13T06:09:45.002Z,11.21
2023-03-13T06:10:44.979Z,11.17
2023-03-13T06:11:44.954Z,11.27
2023-03-13T06:12:44.931Z,11.27
2023-03-13T06:13:44.907Z,11.22
2023-03-13T06:14:44.876Z,11.36
2023-03-13T06:15:44.898Z,11.35
2023-03-13T06:16:44.824Z,11.27
2023-03-13T06:17:44.795Z,11.47
2023-03-13T06:18:44.777Z,11.39
2023-03-13T06:19:44.753Z,11.51
2023-03-13T06:20:44.751Z,11.46
2023-03-13T06:21:44.703Z,11.37
2023-03-13T06:22:44.690Z,11.35
2023-03-13T06:23:44.646Z,11.37
2023-03-13T06:24:44.632Z,11.37
2023-03-13T06:25:44.595Z,11.44
2023-03-13T06:26:44.571Z,11.47
2023-03-13T06:27:44.548Z,11.47
2023-03-13T06:28:44.561Z,11.46
2023-03-13T06:29:44.531Z,11.54
2023-03-13T06:30:44.488Z,11.52
2023-03-13T06:31:44.543Z,11.54
2023-03-13T06:32:44.569Z,11.54
2023-03-13T06:33:44.397Z,11.51
2023-03-13T06:34:44.373Z,11.57
2023-03-13T06:35:55.573Z,11.57
2023-03-13T06:36:44.347Z,11.58
2023-03-13T06:37:44.299Z,11.54
2023-03-13T06:38:44.284Z,11.60
2023-03-13T06:39:44.249Z,11.61
2023-03-13T06:40:45.843Z,11.60
2023-03-13T06:41:44.214Z,11.67
2023-03-13T06:42:44.180Z,11.65
2023-03-13T06:43:44.158Z,11.58
2023-03-13T06:44:44.141Z,11.57
2023-03-13T06:45:44.101Z,11.61
2023-03-13T06:46:44.107Z,11.60
2023-03-13T06:47:44.061Z,11.60
2023-03-13T06:48:44.032Z,11.55
2023-03-13T06:49:44.002Z,11.58
2023-03-13T06:50:43.987Z,11.58
2023-03-13T06:51:43.952Z,11.67
2023-03-13T06:52:44.483Z,11.67
2023-03-13T06:53:43.916Z,11.60
2023-03-13T06:54:43.883Z,11.67
2023-03-13T06:55:43.858Z,11.75
2023-03-13T06:56:43.827Z,11.73
2023-03-13T06:57:43.804Z,11.72
2023-03-13T06:58:43.779Z,11.79
2023-03-13T06:59:43.756Z,11.72
2023-03-13T07:00:43.777Z,11.75
2023-03-13T07:01:43.712Z,11.79
2023-03-13T07:02:43.687Z,11.70
2023-03-13T07:03:43.718Z,11.78
2023-03-13T07:04:45.175Z,11.78
2023-03-13T07:05:43.612Z,11.79
2023-03-13T07:06:43.597Z,11.86
2023-03-13T07:07:43.567Z,11.79
2023-03-13T07:08:43.566Z,11.88
2023-03-13T07:09:43.522Z,11.88
2023-03-13T07:10:43.497Z,11.94
2023-03-13T07:11:43.457Z,11.91
2023-03-13T07:12:43.451Z,11.85
2023-03-13T07:13:43.414Z,11.88
2023-03-13T07:14:43.387Z,11.98
2023-03-13T07:15:43.368Z,11.96
2023-03-13T07:16:43.503Z,12.04
2023-03-13T07:17:43.439Z,12.05
2023-03-13T07:18:43.295Z,11.98
2023-03-13T07:19:43.270Z,11.98
2023-03-13T07:20:43.316Z,12.07
2023-03-13T07:21:43.228Z,12.07
2023-03-13T07:22:43.205Z,12.13
2023-03-13T07:23:43.170Z,12.14
2023-03-13T07:24:43.240Z,12.09
2023-03-13T07:25:43.131Z,12.14
2023-03-13T07:26:57.739Z,12.12
2023-03-13T07:27:43.074Z,12.13
2023-03-13T07:28:43.055Z,12.16
2023-03-13T07:29:43.018Z,12.14
2023-03-13T07:30:43.002Z,12.17
2023-03-13T07:31:43.032Z,12.20
2023-03-13T07:32:43.032Z,12.24
2023-03-13T07:33:42.920Z,12.12
2023-03-13T07:34:42.899Z,12.17
2023-03-13T07:35:42.874Z,12.20
2023-03-13T07:36:42.849Z,12.24
2023-03-13T07:37:42.835Z,12.27
2023-03-13T07:38:42.802Z,12.34
2023-03-13T07:39:42.779Z,12.46
2023-03-13T07:40:42.773Z,12.31
2023-03-13T07:41:42.721Z,12.28
2023-03-13T07:42:42.705Z,12.32
2023-03-13T07:43:42.704Z,12.32
2023-03-13T07:44:42.697Z,12.31
2023-03-13T07:45:42.721Z,12.38
2023-03-13T07:46:42.611Z,12.34
2023-03-13T07:47:42.592Z,12.29
2023-03-13T07:48:42.572Z,12.39
2023-03-13T07:49:42.527Z,12.50
2023-03-13T07:50:42.567Z,12.50
2023-03-13T07:51:44.379Z,12.53
2023-03-13T07:52:42.473Z,12.53
2023-03-13T07:53:42.428Z,12.50
2023-03-13T07:54:42.410Z,12.56
2023-03-13T07:55:42.385Z,12.65
2023-03-13T07:56:42.383Z,12.62
2023-03-13T07:57:42.336Z,12.68
2023-03-13T07:58:42.316Z,12.64
2023-03-13T07:59:42.285Z,12.67
2023-03-13T08:00:42.265Z,12.75
2023-03-13T08:01:42.255Z,12.75
2023-03-13T08:02:42.342Z,12.72
2023-03-13T08:03:42.243Z,12.77
2023-03-13T08:04:42.170Z,12.79
2023-03-13T08:05:42.140Z,12.87
2023-03-13T08:06:42.126Z,12.87
2023-03-13T08:07:42.087Z,12.82
2023-03-13T08:08:42.075Z,12.79
2023-03-13T08:09:42.045Z,12.82
2023-03-13T08:10:42.028Z,12.83
2023-03-13T08:11:41.992Z,12.78
2023-03-13T08:12:41.993Z,12.97
2023-03-13T08:13:41.948Z,12.95
2023-03-13T08:14:41.933Z,12.93
2023-03-13T08:15:41.911Z,12.90
2023-03-13T08:16:41.939Z,12.93
2023-03-13T08:17:41.851Z,12.97
2023-03-13T08:18:41.827Z,12.96
2023-03-13T08:19:41.791Z,12.90
2023-03-13T08:20:42.908Z,13.03
2023-03-13T08:21:41.766Z,13.01
2023-03-13T08:22:41.729Z,13.07
2023-03-13T08:23:41.708Z,13.07
2023-03-13T08:24:41.680Z,13.08
2023-03-13T08:25:41.649Z,13.07
2023-03-13T08:26:41.653Z,13.07
2023-03-13T08:27:41.607Z,13.10
2023-03-13T08:28:41.594Z,13.14
2023-03-13T08:29:41.552Z,13.14
2023-03-13T08:30:41.569Z,13.19
2023-03-13T08:31:41.499Z,13.20
2023-03-13T08:32:41.548Z,13.15
2023-03-13T08:33:41.454Z,13.22
2023-03-13T08:34:41.546Z,13.23
2023-03-13T08:35:41.483Z,13.28
2023-03-13T08:36:41.391Z,13.23
2023-03-13T08:37:41.364Z,13.28
2023-03-13T08:38:41.350Z,13.20
2023-03-13T08:39:41.313Z,13.30
2023-03-13T08:40:41.286Z,13.23
2023-03-13T08:41:41.265Z,13.33
2023-03-13T08:42:41.244Z,13.30
2023-03-13T08:43:41.216Z,13.33
2023-03-13T08:44:41.214Z,13.32
2023-03-13T08:45:41.171Z,13.25
2023-03-13T08:46:41.278Z,13.22
2023-03-13T08:47:41.118Z,13.26
2023-03-13T08:48:41.099Z,13.22
2023-03-13T08:49:41.079Z,13.20
2023-03-13T08:50:41.046Z,13.11
2023-03-13T08:51:41.025Z,13.15
2023-03-13T08:52:41.004Z,13.23
2023-03-13T08:53:40.994Z,13.22
2023-03-13T08:54:40.955Z,13.25
2023-03-13T08:55:40.933Z,13.23
2023-03-13T08:56:40.931Z,13.25
2023-03-13T08:57:40.878Z,13.26
2023-03-13T08:58:40.859Z,13.26
2023-03-13T08:59:40.838Z,13.23
2023-03-13T09:00:40.834Z,13.22
2023-03-13T09:01:40.783Z,13.26
2023-03-13T09:02:40.823Z,13.25
2023-03-13T09:03:40.830Z,13.30
2023-03-13T09:04:40.717Z,13.25
2023-03-13T09:05:54.832Z,13.33
2023-03-13T09:06:40.665Z,13.26
2023-03-13T09:07:40.640Z,13.23
2023-03-13T09:08:40.625Z,13.23
2023-03-13T09:09:40.597Z,13.29
2023-03-13T09:10:40.577Z,13.25
2023-03-13T09:11:40.553Z,13.26
2023-03-13T09:12:40.526Z,13.36
2023-03-13T09:13:40.502Z,13.36
2023-03-13T09:14:40.495Z,13.41
2023-03-13T09:15:40.504Z,13.33
2023-03-13T09:16:40.473Z,13.33
2023-03-13T09:17:40.444Z,13.32
2023-03-13T09:18:40.381Z,13.38
2023-03-13T09:19:54.124Z,13.28
2023-03-13T09:20:40.333Z,13.41
2023-03-13T09:21:40.317Z,13.46
2023-03-13T09:22:40.286Z,13.52
2023-03-13T09:23:40.277Z,13.51
2023-03-13T09:24:40.236Z,13.48
2023-03-13T09:25:40.212Z,13.42
2023-03-13T09:26:46.516Z,13.51
2023-03-13T09:27:40.169Z,13.59
2023-03-13T09:28:40.135Z,13.57
2023-03-13T09:29:40.115Z,13.60
2023-03-13T09:30:40.094Z,13.62
2023-03-13T09:31:40.101Z,13.70
2023-03-13T09:32:40.102Z,13.84
2023-03-13T09:33:40.030Z,13.88
2023-03-13T09:34:39.998Z,13.92
2023-03-13T09:35:40.017Z,14.02
2023-03-13T09:36:39.956Z,14.06
2023-03-13T09:37:39.941Z,14.06
2023-03-13T09:38:39.905Z,14.12
2023-03-13T09:39:39.894Z,14.15
2023-03-13T09:40:39.855Z,14.24
2023-03-13T09:41:39.836Z,14.22
2023-03-13T09:42:39.814Z,14.24
2023-03-13T09:43:39.786Z,14.29
2023-03-13T09:44:39.752Z,14.33
2023-03-13T09:45:39.742Z,14.36
2023-03-13T09:46:39.770Z,14.36
2023-03-13T09:47:39.702Z,14.42
2023-03-13T09:48:39.743Z,14.43
2023-03-13T09:49:39.657Z,14.40
2023-03-13T09:50:39.613Z,14.39
2023-03-13T09:51:39.596Z,14.35
2023-03-13T09:52:39.570Z,14.45
2023-03-13T09:53:39.558Z,14.42
2023-03-13T09:54:39.528Z,14.43
2023-03-13T09:55:39.502Z,14.57
2023-03-13T09:56:39.477Z,14.57
2023-03-13T09:57:39.449Z,14.62
2023-03-13T09:58:39.427Z,14.58
2023-03-13T09:59:39.407Z,14.64
2023-03-13T10:00:39.389Z,14.69
2023-03-13T10:01:39.437Z,14.80
2023-03-13T10:02:39.337Z,14.73
2023-03-13T10:03:39.319Z,14.80
2023-03-13T10:04:41.718Z,14.80
2023-03-13T10:05:39.262Z,14.86
2023-03-13T10:06:39.238Z,14.80
2023-03-13T10:07:39.224Z,14.78
2023-03-13T10:08:39.191Z,14.70
2023-03-13T10:09:39.175Z,14.75
2023-03-13T10:10:39.154Z,14.70
2023-03-13T10:11:39.124Z,14.75
2023-03-13T10:12:39.104Z,14.75
2023-03-13T10:13:39.095Z,14.81
2023-03-13T10:14:39.060Z,14.81
2023-03-13T10:15:39.052Z,14.83
2023-03-13T10:16:39.082Z,14.86
2023-03-13T10:17:38.990Z,14.83
2023-03-13T10:18:38.960Z,14.91
2023-03-13T10:19:38.937Z,14.86
2023-03-13T10:20:38.938Z,14.94
2023-03-13T10:21:38.892Z,14.98
2023-03-13T10:22:38.864Z,14.92
2023-03-13T10:23:38.858Z,14.96
2023-03-13T10:24:38.831Z,15.23
2023-03-13T10:25:38.796Z,15.31
2023-03-13T10:26:38.773Z,15.27
2023-03-13T10:27:38.750Z,15.21
2023-03-13T10:28:38.730Z,15.27
2023-03-13T10:29:38.753Z,15.31
2023-03-13T10:30:38.691Z,15.21
2023-03-13T10:31:38.759Z,15.13
2023-03-13T10:32:38.660Z,15.20
2023-03-13T10:33:38.611Z,15.32
2023-03-13T10:34:38.591Z,15.27
2023-03-13T10:35:38.632Z,15.32
2023-03-13T10:36:38.566Z,15.49
2023-03-13T10:37:38.520Z,15.47
2023-03-13T10:38:38.499Z,15.49
2023-03-13T10:39:38.482Z,15.49
2023-03-13T10:40:38.454Z,15.56
2023-03-13T10:41:38.434Z,15.54
2023-03-13T10:42:38.406Z,15.60
2023-03-13T10:43:38.391Z,15.60
2023-03-13T10:44:38.363Z,15.65
2023-03-13T10:45:38.341Z,15.64
2023-03-13T10:46:38.351Z,15.69
2023-03-13T10:47:38.299Z,15.65
2023-03-13T10:48:38.270Z,15.57
2023-03-13T10:49:38.249Z,15.65
2023-03-13T10:50:38.225Z,15.62
2023-03-13T10:51:38.207Z,15.71
2023-03-13T10:52:38.200Z,15.69
2023-03-13T10:53:38.166Z,15.80
2023-03-13T10:54:38.134Z,15.83
2023-03-13T10:55:38.113Z,15.96
2023-03-13T10:56:38.089Z,15.94
2023-03-13T10:57:38.069Z,16.04
2023-03-13T10:58:38.045Z,16.02
2023-03-13T10:59:38.026Z,16.07
2023-03-13T11:00:38.003Z,16.07
2023-03-13T11:01:37.977Z,16.07
2023-03-13T11:02:38.177Z,16.07
2023-03-13T11:03:38.048Z,16.14
2023-03-13T11:04:37.908Z,16.20
2023-03-13T11:05:37.893Z,16.05
2023-03-13T11:06:37.861Z,16.02
2023-03-13T11:07:37.846Z,16.02
2023-03-13T11:08:37.897Z,15.94
2023-03-13T11:09:37.799Z,15.86
2023-03-13T11:10:37.771Z,15.82
2023-03-13T11:11:37.751Z,15.75
2023-03-13T11:12:37.726Z,15.74
2023-03-13T11:13:38.353Z,15.68
2023-03-13T11:14:37.697Z,15.83
2023-03-13T11:15:37.668Z,15.86
2023-03-13T11:16:37.730Z,15.83
2023-03-13T11:17:37.638Z,15.87
2023-03-13T11:18:37.598Z,15.89
2023-03-13T11:19:37.578Z,15.87
2023-03-13T11:20:37.587Z,15.86
2023-03-13T11:21:37.535Z,15.80
2023-03-13T11:22:37.518Z,15.82
2023-03-13T11:23:37.485Z,15.90
2023-03-13T11:24:37.487Z,16.05
2023-03-13T11:25:37.440Z,16.14
2023-03-13T11:26:37.426Z,16.12
2023-03-13T11:27:37.496Z,16.25
2023-03-13T11:28:37.367Z,16.25
2023-03-13T11:29:37.385Z,16.25
2023-03-13T11:30:37.324Z,16.21
2023-03-13T11:31:37.320Z,16.24
2023-03-13T11:32:37.397Z,16.12
2023-03-13T11:33:37.264Z,16.11
2023-03-13T11:34:37.233Z,16.27
2023-03-13T11:35:37.252Z,16.31
2023-03-13T11:36:37.195Z,16.33
2023-03-13T11:37:37.186Z,16.28
2023-03-13T11:38:37.199Z,16.39
2023-03-13T11:39:37.173Z,16.31
2023-03-13T11:40:37.146Z,16.34
2023-03-13T11:41:37.238Z,16.31
2023-03-13T11:42:37.055Z,16.28
2023-03-13T11:43:37.031Z,16.11
2023-03-13T11:44:37.011Z,16.21
2023-03-13T11:45:37.005Z,16.21
2023-03-13T11:46:37.278Z,16.23
2023-03-13T11:47:36.966Z,16.33
2023-03-13T11:48:36.925Z,16.24
2023-03-13T11:49:39.590Z,16.28
2023-03-13T11:50:36.875Z,16.28
2023-03-13T11:51:36.923Z,16.38
2023-03-13T11:52:36.827Z,16.34
2023-03-13T11:53:36.817Z,16.35
2023-03-13T11:54:36.784Z,16.33
2023-03-13T11:55:36.778Z,16.42
2023-03-13T11:56:36.762Z,16.57
2023-03-13T11:57:36.725Z,16.58
2023-03-13T11:58:36.706Z,16.57
2023-03-13T11:59:36.694Z,16.53
2023-03-13T12:00:36.763Z,16.50
2023-03-13T12:01:36.633Z,16.57
2023-03-13T12:02:36.747Z,16.53
2023-03-13T12:03:36.737Z,16.70
2023-03-13T12:04:36.586Z,16.57
2023-03-13T12:05:36.615Z,16.66
2023-03-13T12:06:36.522Z,16.66
2023-03-13T12:07:36.511Z,16.61
2023-03-13T12:08:36.482Z,16.57
2023-03-13T12:09:36.455Z,16.66
2023-03-13T12:10:36.433Z,16.64
2023-03-13T12:11:36.411Z,16.75
2023-03-13T12:12:36.414Z,16.76
2023-03-13T12:13:36.371Z,16.68
2023-03-13T12:14:36.355Z,16.63
2023-03-13T12:15:36.335Z,16.70
2023-03-13T12:16:36.338Z,16.68
2023-03-13T12:17:36.329Z,16.63
2023-03-13T12:18:36.257Z,16.68
2023-03-13T12:19:36.230Z,16.57
2023-03-13T12:20:36.229Z,16.52
2023-03-13T12:21:36.223Z,16.56
2023-03-13T12:22:36.161Z,16.58
2023-03-13T12:23:36.170Z,16.60
2023-03-13T12:24:36.124Z,16.71
2023-03-13T12:25:38.769Z,16.81
2023-03-13T12:26:36.073Z,16.85
2023-03-13T12:27:36.056Z,16.86
2023-03-13T12:28:36.156Z,16.83
2023-03-13T12:29:36.013Z,16.81
2023-03-13T12:30:36.096Z,16.71
2023-03-13T12:31:35.980Z,16.64
2023-03-13T12:32:35.985Z,16.70
2023-03-13T12:33:35.940Z,16.53
2023-03-13T12:34:35.925Z,16.46
2023-03-13T12:35:35.888Z,16.46
2023-03-13T12:36:35.859Z,16.45
2023-03-13T12:37:35.842Z,16.38
2023-03-13T12:38:35.817Z,16.41
2023-03-13T12:39:35.806Z,16.41
2023-03-13T12:40:35.780Z,16.41
2023-03-13T12:41:35.754Z,16.49
2023-03-13T12:42:35.730Z,16.53
2023-03-13T12:43:35.708Z,16.49
2023-03-13T12:44:35.709Z,16.53
2023-03-13T12:45:35.740Z,16.60
2023-03-13T12:46:35.662Z,16.64
2023-03-13T12:47:35.623Z,16.63
2023-03-13T12:48:35.690Z,16.66
2023-03-13T12:49:35.598Z,16.64
2023-03-13T12:50:35.551Z,16.75
2023-03-13T12:51:35.535Z,16.86
2023-03-13T12:52:35.539Z,16.88
2023-03-13T12:53:35.583Z,16.97
2023-03-13T12:54:35.465Z,17.03
2023-03-13T12:55:35.494Z,17.12
2023-03-13T12:56:35.436Z,17.23
2023-03-13T12:57:35.482Z,17.26
2023-03-13T12:58:35.375Z,17.34